Shinpuku Maru — JL6543 — position and weather

sailwx.info

Track history (hours):
 
Tides and Currents Weather Stations Pressure Air Temp Water Temp Dewpoint Dewpoint Depression Visibility Wind Speed Wind Dir Waves Ship Positions

Shinpuku Maru

Last reported at 2018-Jun-19 02:38 UTC. Time now 2018-Jun-20 07:23 UTC.
Position N 35°12' E 139°45'.

Length 79 m; draft 5.3 m.

Type: Cargo ship. MMSI: 431500572.

Date/timePositionNaut miles runAvg speedWind from/ knotsBaromVisibWave heightAir tempDewpointWater temp
2018-Jun-19 02:38N 35°12' E 139°45'110.6
2018-Jun-19 02:30N 35°13' E 139°44'1 0.2
2018-Jun-18 22:57N 35°13' E 139°43'2 3.7
2018-Jun-18 22:30N 35°13' E 139°45'0 0.2
2018-Jun-18 22:00N 35°13' E 139°45'2 2.9
2018-Jun-18 21:29N 35°14' E 139°46'511.4
2018-Jun-18 21:00N 35°19' E 139°43'510.7
2018-Jun-18 20:30N 35°24' E 139°43'510.1
2018-Jun-18 20:00N 35°25' E 139°49'2 2.3
2018-Jun-18 19:12N 35°23' E 139°50'0 0.0
2018-Jun-18 19:00N 35°23' E 139°50'0 0.0
2018-Jun-18 15:15N 35°23' E 139°50'0 0.0
2018-Jun-18 13:30N 35°23' E 139°50'0 0.0
2018-Jun-18 11:21N 35°23' E 139°50'0 0.0
2018-Jun-18 10:57N 35°23' E 139°50'0 0.0
2018-Jun-18 10:21N 35°23' E 139°50'0 0.0
2018-Jun-18 09:57N 35°23' E 139°50'0 0.0
2018-Jun-18 09:15N 35°23' E 139°50'0 0.0
2018-Jun-18 07:03N 35°23' E 139°50'0 0.0
2018-Jun-18 06:39N 35°23' E 139°50'0 0.0
2018-Jun-18 06:09N 35°23' E 139°50'0 0.3
2018-Jun-18 05:59N 35°23' E 139°50'2 0.8
2018-Jun-18 02:52N 35°22' E 139°53'3 8.2
2018-Jun-18 02:31N 35°23' E 139°50'4 7.4
2018-Jun-18 02:01N 35°22' E 139°45'5 9.4
2018-Jun-18 01:30N 35°17' E 139°45'5 9.6
2018-Jun-18 01:00N 35°13' E 139°47'  
2018-Jun-09 06:01N 35°12' E 139°47'010.8
2018-Jun-09 06:00N 35°13' E 139°47'510.3
2018-Jun-09 05:30N 35°17' E 139°44'510.0
2018-Jun-09 05:00N 35°22' E 139°42'510.4
2018-Jun-09 04:30N 35°27' E 139°43'2 3.3
2018-Jun-09 03:58N 35°29' E 139°43'0 0.0
2018-Jun-09 03:28N 35°29' E 139°43'0 0.0
2018-Jun-09 02:58N 35°29' E 139°43'  
Track history (hours):
 
Tides and Currents Weather Stations Pressure Air Temp Water Temp Dewpoint Dewpoint Depression Visibility Wind Speed Wind Dir Waves Ship Positions

Shinpuku Maru

Last reported at 2018-Jun-19 02:38 UTC. Time now 2018-Jun-20 07:23 UTC.
Position N 35°12' E 139°45'.

Length 79 m; draft 5.3 m.

Type: Cargo ship. MMSI: 431500572.

Date/timePositionNaut miles runAvg speedWind from/ knotsBaromVisibWave heightAir tempDewpointWater temp
2018-Jun-19 02:38N 35°12' E 139°45'110.6
2018-Jun-19 02:30N 35°13' E 139°44'1 0.2
2018-Jun-18 22:57N 35°13' E 139°43'2 3.7
2018-Jun-18 22:30N 35°13' E 139°45'0 0.2
2018-Jun-18 22:00N 35°13' E 139°45'2 2.9
2018-Jun-18 21:29N 35°14' E 139°46'511.4
2018-Jun-18 21:00N 35°19' E 139°43'510.7
2018-Jun-18 20:30N 35°24' E 139°43'510.1
2018-Jun-18 20:00N 35°25' E 139°49'2 2.3
2018-Jun-18 19:12N 35°23' E 139°50'0 0.0
2018-Jun-18 19:00N 35°23' E 139°50'0 0.0
2018-Jun-18 15:15N 35°23' E 139°50'0 0.0
2018-Jun-18 13:30N 35°23' E 139°50'0 0.0
2018-Jun-18 11:21N 35°23' E 139°50'0 0.0
2018-Jun-18 10:57N 35°23' E 139°50'0 0.0
2018-Jun-18 10:21N 35°23' E 139°50'0 0.0
2018-Jun-18 09:57N 35°23' E 139°50'0 0.0
2018-Jun-18 09:15N 35°23' E 139°50'0 0.0
2018-Jun-18 07:03N 35°23' E 139°50'0 0.0
2018-Jun-18 06:39N 35°23' E 139°50'0 0.0
2018-Jun-18 06:09N 35°23' E 139°50'0 0.3
2018-Jun-18 05:59N 35°23' E 139°50'2 0.8
2018-Jun-18 02:52N 35°22' E 139°53'3 8.2
2018-Jun-18 02:31N 35°23' E 139°50'4 7.4
2018-Jun-18 02:01N 35°22' E 139°45'5 9.4
2018-Jun-18 01:30N 35°17' E 139°45'5 9.6
2018-Jun-18 01:00N 35°13' E 139°47'  
2018-Jun-09 06:01N 35°12' E 139°47'010.8
2018-Jun-09 06:00N 35°13' E 139°47'510.3
2018-Jun-09 05:30N 35°17' E 139°44'510.0
2018-Jun-09 05:00N 35°22' E 139°42'510.4
2018-Jun-09 04:30N 35°27' E 139°43'2 3.3
2018-Jun-09 03:58N 35°29' E 139°43'0 0.0
2018-Jun-09 03:28N 35°29' E 139°43'0 0.0
2018-Jun-09 02:58N 35°29' E 139°43'  

Dump ship's entire track history